createdAt,value
2023-03-29T00:01:00.201Z,95.92
2023-03-29T00:03:27.824Z,99.60
2023-03-29T00:06:05.670Z,96.64
2023-03-29T00:08:38.508Z,96.62
2023-03-29T00:11:05.356Z,97.76
2023-03-29T00:13:31.991Z,100.00
2023-03-29T00:15:58.607Z,99.14
2023-03-29T00:18:26.547Z,100.00
2023-03-29T00:20:58.076Z,100.00
2023-03-29T00:23:25.386Z,97.16
2023-03-29T00:25:55.841Z,97.68
2023-03-29T00:28:22.926Z,97.05
2023-03-29T00:30:51.004Z,98.48
2023-03-29T00:33:20.662Z,100.00
2023-03-29T00:35:50.583Z,100.00
2023-03-29T00:38:17.254Z,100.00
2023-03-29T00:40:47.198Z,98.63
2023-03-29T00:43:15.372Z,99.02
2023-03-29T00:45:42.513Z,99.27
2023-03-29T00:48:12.343Z,99.52
2023-03-29T00:50:39.452Z,100.00
2023-03-29T00:53:27.800Z,98.52
2023-03-29T00:56:07.783Z,98.80
2023-03-29T00:58:43.538Z,98.26
2023-03-29T01:01:26.107Z,100.00
2023-03-29T01:03:59.682Z,99.21
2023-03-29T01:06:29.590Z,100.00
2023-03-29T01:09:03.124Z,100.00
2023-03-29T01:11:38.878Z,100.00
2023-03-29T01:14:11.764Z,100.00
2023-03-29T01:16:38.703Z,100.00
2023-03-29T01:19:08.570Z,99.58
2023-03-29T01:22:14.810Z,100.00
2023-03-29T01:25:11.346Z,99.37
2023-03-29T01:27:37.827Z,97.68
2023-03-29T01:30:16.214Z,100.00
2023-03-29T01:32:50.557Z,100.00
2023-03-29T01:35:25.357Z,100.00
2023-03-29T01:38:20.657Z,98.77
2023-03-29T01:40:47.485Z,100.00
2023-03-29T01:43:26.108Z,100.00
2023-03-29T01:46:04.937Z,98.31
2023-03-29T01:48:40.586Z,100.00
2023-03-29T01:51:16.245Z,100.00
2023-03-29T01:53:47.612Z,100.00
2023-03-29T01:56:19.481Z,100.00
2023-03-29T01:58:50.198Z,99.47
2023-03-29T02:01:23.011Z,100.00
2023-03-29T02:03:54.697Z,100.00
2023-03-29T02:06:25.679Z,100.00
2023-03-29T02:08:53.298Z,97.84
2023-03-29T02:11:20.763Z,99.61
2023-03-29T02:13:47.334Z,100.00
2023-03-29T02:16:15.475Z,100.00
2023-03-29T02:18:46.543Z,100.00
2023-03-29T02:21:21.302Z,100.00
2023-03-29T02:23:49.753Z,100.00
2023-03-29T02:26:17.663Z,100.00
2023-03-29T02:28:44.455Z,100.00
2023-03-29T02:31:26.270Z,100.00
2023-03-29T02:34:11.400Z,100.00
2023-03-29T02:36:46.757Z,100.00
2023-03-29T02:39:15.874Z,100.00
2023-03-29T02:41:47.082Z,100.00
2023-03-29T02:44:18.813Z,100.00
2023-03-29T02:46:48.902Z,100.00
2023-03-29T02:49:15.868Z,100.00
2023-03-29T02:51:43.021Z,100.00
2023-03-29T02:54:17.855Z,100.00
2023-03-29T02:56:49.983Z,99.79
2023-03-29T02:59:19.556Z,100.00
2023-03-29T03:01:46.505Z,100.00
2023-03-29T03:04:13.363Z,100.00
2023-03-29T03:06:40.621Z,100.00
2023-03-29T03:09:07.696Z,100.00
2023-03-29T03:11:34.341Z,100.00
2023-03-29T03:14:01.995Z,100.00
2023-03-29T03:16:28.905Z,100.00
2023-03-29T03:18:55.745Z,100.00
2023-03-29T03:21:23.251Z,99.58
2023-03-29T03:23:50.128Z,100.00
2023-03-29T03:26:18.120Z,100.00
2023-03-29T03:28:45.812Z,100.00
2023-03-29T03:31:16.148Z,100.00
2023-03-29T03:33:42.889Z,100.00
2023-03-29T03:36:11.285Z,100.00
2023-03-29T03:38:38.942Z,100.00
2023-03-29T03:41:09.207Z,100.00
2023-03-29T03:43:36.084Z,100.00
2023-03-29T03:46:02.719Z,100.00
2023-03-29T03:48:29.456Z,99.52
2023-03-29T03:50:58.345Z,100.00
2023-03-29T03:53:27.256Z,100.00
2023-03-29T03:55:57.910Z,100.00
2023-03-29T03:58:24.703Z,100.00
2023-03-29T04:00:51.737Z,100.00
2023-03-29T04:03:18.851Z,100.00
2023-03-29T04:05:46.782Z,100.00
2023-03-29T04:08:14.931Z,100.00
2023-03-29T04:10:42.890Z,100.00
2023-03-29T04:13:09.633Z,100.00
2023-03-29T04:15:39.944Z,100.00
2023-03-29T04:18:07.793Z,100.00
2023-03-29T04:20:34.736Z,100.00
2023-03-29T04:23:02.034Z,100.00
2023-03-29T04:25:28.932Z,100.00
2023-03-29T04:27:56.091Z,100.00
2023-03-29T04:30:23.027Z,100.00
2023-03-29T04:32:49.855Z,100.00
2023-03-29T04:35:16.597Z,100.00
2023-03-29T04:37:43.220Z,100.00
2023-03-29T04:40:14.266Z,100.00
2023-03-29T04:42:46.092Z,100.00
2023-03-29T04:45:14.364Z,100.00
2023-03-29T04:47:42.117Z,100.00
2023-03-29T04:50:09.261Z,100.00
2023-03-29T04:52:36.136Z,100.00
2023-03-29T04:55:05.268Z,100.00
2023-03-29T04:57:31.913Z,100.00
2023-03-29T04:59:58.516Z,100.00
2023-03-29T05:02:25.192Z,100.00
2023-03-29T05:04:52.205Z,100.00
2023-03-29T05:07:19.568Z,100.00
2023-03-29T05:09:46.265Z,100.00
2023-03-29T05:12:13.183Z,100.00
2023-03-29T05:14:39.786Z,100.00
2023-03-29T05:17:06.581Z,100.00
2023-03-29T05:19:33.759Z,100.00
2023-03-29T05:22:00.831Z,100.00
2023-03-29T05:24:27.691Z,100.00
2023-03-29T05:26:54.444Z,100.00
2023-03-29T05:29:21.751Z,100.00
2023-03-29T05:31:48.363Z,100.00
2023-03-29T05:34:15.066Z,100.00
2023-03-29T05:36:42.895Z,100.00
2023-03-29T05:39:10.965Z,100.00
2023-03-29T05:41:37.947Z,100.00
2023-03-29T05:44:06.324Z,100.00
2023-03-29T05:46:32.967Z,100.00
2023-03-29T05:48:59.577Z,100.00
2023-03-29T05:51:26.186Z,100.00
2023-03-29T05:53:53.291Z,100.00
2023-03-29T05:56:20.060Z,100.00
2023-03-29T05:58:46.759Z,100.00
2023-03-29T06:01:14.507Z,100.00
2023-03-29T06:03:41.436Z,100.00
2023-03-29T06:06:09.615Z,100.00
2023-03-29T06:08:36.459Z,100.00
2023-03-29T06:11:05.837Z,100.00
2023-03-29T06:13:34.128Z,100.00
2023-03-29T06:16:01.293Z,100.00
2023-03-29T06:18:28.188Z,100.00
2023-03-29T06:20:55.015Z,100.00
2023-03-29T06:23:22.486Z,100.00
2023-03-29T06:25:51.559Z,100.00
2023-03-29T06:28:20.331Z,100.00
2023-03-29T06:30:47.689Z,100.00
2023-03-29T06:33:14.466Z,100.00
2023-03-29T06:35:45.343Z,100.00
2023-03-29T06:38:12.029Z,100.00
2023-03-29T06:40:38.811Z,100.00
2023-03-29T06:43:06.667Z,100.00
2023-03-29T06:45:36.357Z,100.00
2023-03-29T06:48:03.958Z,100.00
2023-03-29T06:50:30.988Z,100.00
2023-03-29T06:52:57.627Z,100.00
2023-03-29T06:55:24.951Z,100.00
2023-03-29T06:57:51.607Z,100.00
2023-03-29T07:00:28.295Z,100.00
2023-03-29T07:02:56.325Z,100.00
2023-03-29T07:05:24.047Z,100.00
2023-03-29T07:07:57.493Z,100.00
2023-03-29T07:10:32.237Z,100.00
2023-03-29T07:13:00.899Z,100.00
2023-03-29T07:15:29.435Z,100.00
2023-03-29T07:17:58.015Z,100.00
2023-03-29T07:20:27.008Z,100.00
2023-03-29T07:22:53.853Z,100.00
2023-03-29T07:25:22.558Z,100.00
2023-03-29T07:27:49.757Z,100.00
2023-03-29T07:30:22.907Z,100.00
2023-03-29T07:32:51.366Z,100.00
2023-03-29T07:35:18.642Z,100.00
2023-03-29T07:37:46.378Z,100.00
2023-03-29T07:40:18.644Z,100.00
2023-03-29T07:42:47.174Z,100.00
2023-03-29T07:45:16.468Z,100.00
2023-03-29T07:47:50.533Z,100.00
2023-03-29T07:50:17.585Z,100.00
2023-03-29T07:52:44.786Z,100.00
2023-03-29T07:55:13.242Z,100.00
2023-03-29T07:57:40.439Z,100.00
2023-03-29T08:00:26.261Z,100.00
2023-03-29T08:02:52.907Z,100.00
2023-03-29T08:05:37.775Z,100.00
2023-03-29T08:08:07.630Z,100.00
2023-03-29T08:10:37.341Z,100.00
2023-03-29T08:13:07.375Z,100.00
2023-03-29T08:15:41.514Z,100.00
2023-03-29T08:18:08.672Z,100.00
2023-03-29T08:20:35.350Z,98.40
2023-03-29T08:23:02.106Z,99.60
2023-03-29T08:25:28.697Z,98.53
2023-03-29T08:27:55.311Z,94.86
2023-03-29T08:30:22.081Z,95.03
2023-03-29T08:32:52.197Z,96.43
2023-03-29T08:35:20.484Z,96.94
2023-03-29T08:37:47.274Z,96.57
2023-03-29T08:40:21.670Z,97.42
2023-03-29T08:43:01.827Z,99.74
2023-03-29T08:46:03.874Z,100.00
2023-03-29T08:48:37.734Z,100.00
2023-03-29T08:51:20.040Z,100.00
2023-03-29T08:53:52.575Z,100.00
2023-03-29T08:56:25.153Z,100.00
2023-03-29T08:58:54.485Z,100.00
2023-03-29T09:01:22.736Z,100.00
2023-03-29T09:04:28.409Z,100.00
2023-03-29T09:06:55.692Z,100.00
2023-03-29T09:09:25.541Z,100.00
2023-03-29T09:12:13.578Z,100.00
2023-03-29T09:15:00.330Z,100.00
2023-03-29T09:17:51.629Z,100.00
2023-03-29T09:20:30.484Z,100.00
2023-03-29T09:23:12.436Z,100.00
2023-03-29T09:26:00.110Z,100.00
2023-03-29T09:28:55.040Z,100.00
2023-03-29T09:31:26.208Z,100.00
2023-03-29T09:33:58.740Z,100.00
2023-03-29T09:36:37.076Z,100.00
2023-03-29T09:39:05.073Z,100.00
2023-03-29T09:42:05.244Z,100.00
2023-03-29T09:44:37.377Z,98.29
2023-03-29T09:47:13.409Z,97.04
2023-03-29T09:49:47.128Z,97.21
2023-03-29T09:52:17.145Z,95.80
2023-03-29T09:54:44.454Z,94.76
2023-03-29T09:57:17.046Z,95.75
2023-03-29T09:59:46.151Z,94.50
2023-03-29T10:02:13.952Z,93.58
2023-03-29T10:04:42.959Z,94.33
2023-03-29T10:07:18.329Z,94.68
2023-03-29T10:09:46.388Z,94.22
2023-03-29T10:12:14.084Z,94.09
2023-03-29T10:14:48.632Z,93.79
2023-03-29T10:17:25.588Z,93.37
2023-03-29T10:19:57.201Z,94.82
2023-03-29T10:22:34.837Z,94.96
2023-03-29T10:25:02.153Z,94.37
2023-03-29T10:27:32.079Z,95.53
2023-03-29T10:30:01.118Z,93.75
2023-03-29T10:32:34.934Z,94.20
2023-03-29T10:35:16.863Z,94.26
2023-03-29T10:37:47.582Z,94.05
2023-03-29T10:40:25.817Z,94.84
2023-03-29T10:42:54.091Z,94.65
2023-03-29T10:45:25.829Z,93.01
2023-03-29T10:47:56.047Z,93.84
2023-03-29T10:50:22.955Z,92.95
2023-03-29T10:52:50.542Z,93.53
2023-03-29T10:55:17.378Z,93.51
2023-03-29T10:57:59.490Z,92.58
2023-03-29T11:00:50.051Z,92.73
2023-03-29T11:03:40.208Z,92.63
2023-03-29T11:06:07.823Z,92.21
2023-03-29T11:08:50.517Z,92.28
2023-03-29T11:11:35.544Z,94.38
2023-03-29T11:14:14.197Z,94.85
2023-03-29T11:16:51.152Z,96.75
2023-03-29T11:19:29.557Z,95.49
2023-03-29T11:22:29.032Z,94.59
2023-03-29T11:25:21.105Z,94.10
2023-03-29T11:28:17.271Z,95.12
2023-03-29T11:31:13.403Z,95.26
2023-03-29T11:33:48.893Z,95.48
2023-03-29T11:36:42.260Z,94.54
2023-03-29T11:39:30.607Z,94.23
2023-03-29T11:42:17.648Z,94.91
2023-03-29T11:44:47.327Z,95.10
2023-03-29T11:47:26.776Z,95.35
2023-03-29T11:50:22.870Z,94.64
2023-03-29T11:52:54.491Z,95.52
2023-03-29T11:55:28.905Z,95.73
2023-03-29T11:57:56.762Z,94.99
2023-03-29T12:00:31.069Z,94.43
2023-03-29T12:03:19.705Z,94.67
2023-03-29T12:05:54.958Z,94.29
2023-03-29T12:08:40.418Z,95.45
2023-03-29T12:11:22.985Z,94.79
2023-03-29T12:14:02.454Z,95.62
2023-03-29T12:16:52.139Z,95.83
2023-03-29T12:19:25.841Z,95.78
2023-03-29T12:21:56.117Z,96.46
2023-03-29T12:24:25.968Z,96.83
2023-03-29T12:27:20.008Z,96.94
2023-03-29T12:30:13.198Z,97.23
2023-03-29T12:33:01.378Z,97.22
2023-03-29T12:35:55.844Z,96.57
2023-03-29T12:38:25.485Z,95.77
2023-03-29T12:40:57.723Z,96.97
2023-03-29T12:43:27.542Z,97.62
2023-03-29T12:46:21.645Z,96.97
2023-03-29T12:48:54.379Z,96.95
2023-03-29T12:51:29.387Z,97.21
2023-03-29T12:54:07.789Z,96.99
2023-03-29T12:56:56.303Z,96.49
2023-03-29T12:59:22.867Z,96.86
2023-03-29T13:02:00.292Z,97.84
2023-03-29T13:04:57.453Z,97.86
2023-03-29T13:07:24.190Z,98.13
2023-03-29T13:09:52.885Z,97.25
2023-03-29T13:12:27.185Z,98.50
2023-03-29T13:14:59.133Z,99.22
2023-03-29T13:17:50.251Z,99.58
2023-03-29T13:20:56.918Z,100.00
2023-03-29T13:23:31.806Z,100.00
2023-03-29T13:26:33.532Z,98.78
2023-03-29T13:29:26.804Z,100.00
2023-03-29T13:32:00.883Z,99.59
2023-03-29T13:34:46.495Z,100.00
2023-03-29T13:37:25.102Z,98.22
2023-03-29T13:39:54.700Z,99.56
2023-03-29T13:42:26.561Z,98.17
2023-03-29T13:44:53.949Z,97.47
2023-03-29T13:47:32.482Z,97.94
2023-03-29T13:50:05.415Z,97.59
2023-03-29T13:52:40.209Z,97.05
2023-03-29T13:55:24.477Z,96.95
2023-03-29T13:58:12.177Z,97.82
2023-03-29T14:00:49.754Z,99.07
2023-03-29T14:03:20.855Z,98.17
2023-03-29T14:05:50.169Z,99.27
2023-03-29T14:08:27.327Z,99.78
2023-03-29T14:10:55.259Z,100.00
2023-03-29T14:13:25.821Z,99.34
2023-03-29T14:15:58.684Z,100.00
2023-03-29T14:18:28.726Z,100.00
2023-03-29T14:20:56.345Z,100.00
2023-03-29T14:23:27.206Z,100.00
2023-03-29T14:25:53.896Z,100.00
2023-03-29T14:28:28.546Z,100.00
2023-03-29T14:30:56.268Z,100.00
2023-03-29T14:33:27.933Z,100.00
2023-03-29T14:36:01.121Z,100.00
2023-03-29T14:38:29.320Z,100.00
2023-03-29T14:40:59.908Z,100.00
2023-03-29T14:43:30.320Z,100.00
2023-03-29T14:45:58.741Z,100.00
2023-03-29T14:48:26.341Z,100.00
2023-03-29T14:50:53.153Z,100.00
2023-03-29T14:53:22.103Z,100.00
2023-03-29T14:55:52.401Z,100.00
2023-03-29T14:58:31.933Z,100.00
2023-03-29T15:01:13.994Z,100.00
2023-03-29T15:03:57.716Z,100.00
2023-03-29T15:06:26.495Z,100.00
2023-03-29T15:09:04.181Z,100.00
2023-03-29T15:11:34.153Z,100.00
2023-03-29T15:14:02.884Z,100.00
2023-03-29T15:16:30.817Z,100.00
2023-03-29T15:18:58.550Z,100.00
2023-03-29T15:21:31.907Z,100.00
2023-03-29T15:24:02.045Z,100.00
2023-03-29T15:26:38.334Z,100.00
2023-03-29T15:29:17.025Z,100.00
2023-03-29T15:31:55.006Z,100.00
2023-03-29T15:34:39.917Z,100.00
2023-03-29T15:37:07.643Z,100.00
2023-03-29T15:39:35.021Z,100.00
2023-03-29T15:42:01.967Z,100.00
2023-03-29T15:44:33.498Z,100.00
2023-03-29T15:47:00.381Z,100.00
2023-03-29T15:49:27.412Z,100.00
2023-03-29T15:51:54.790Z,100.00
2023-03-29T15:54:22.481Z,100.00
2023-03-29T15:56:52.933Z,100.00
2023-03-29T15:59:19.803Z,100.00
2023-03-29T16:01:46.941Z,100.00
2023-03-29T16:04:16.599Z,100.00
2023-03-29T16:06:45.665Z,100.00
2023-03-29T16:09:12.752Z,100.00
2023-03-29T16:11:41.288Z,100.00
2023-03-29T16:14:31.610Z,100.00
2023-03-29T16:17:00.378Z,99.94
2023-03-29T16:19:28.488Z,100.00
2023-03-29T16:21:56.724Z,100.00
2023-03-29T16:24:26.322Z,100.00
2023-03-29T16:26:55.838Z,100.00
2023-03-29T16:29:23.851Z,100.00
2023-03-29T16:31:51.468Z,100.00
2023-03-29T16:34:19.282Z,100.00
2023-03-29T16:36:49.612Z,100.00
2023-03-29T16:39:17.410Z,100.00
2023-03-29T16:41:45.301Z,100.00
2023-03-29T16:44:18.590Z,100.00
2023-03-29T16:46:46.810Z,100.00
2023-03-29T16:49:18.758Z,100.00
2023-03-29T16:51:46.945Z,99.80
2023-03-29T16:54:14.668Z,99.92
2023-03-29T16:56:41.538Z,99.25
2023-03-29T16:59:09.309Z,99.46
2023-03-29T17:01:36.973Z,99.72
2023-03-29T17:04:04.198Z,99.54
2023-03-29T17:06:32.713Z,99.25
2023-03-29T17:08:59.499Z,98.87
2023-03-29T17:11:26.913Z,99.40
2023-03-29T17:13:54.007Z,99.21
2023-03-29T17:16:21.110Z,99.18
2023-03-29T17:18:47.883Z,99.47
2023-03-29T17:21:14.787Z,99.22
2023-03-29T17:23:41.391Z,99.84
2023-03-29T17:26:08.104Z,99.93
2023-03-29T17:28:35.025Z,100.00
2023-03-29T17:31:07.522Z,100.00
2023-03-29T17:33:35.003Z,100.00
2023-03-29T17:36:02.628Z,100.00
2023-03-29T17:38:30.697Z,100.00
2023-03-29T17:40:57.458Z,100.00
2023-03-29T17:43:24.083Z,100.00
2023-03-29T17:45:52.303Z,100.00
2023-03-29T17:48:19.485Z,100.00
2023-03-29T17:50:46.571Z,100.00
2023-03-29T17:53:13.562Z,100.00
2023-03-29T17:55:41.052Z,100.00
2023-03-29T17:58:08.312Z,100.00
2023-03-29T18:00:35.737Z,100.00
2023-03-29T18:03:03.925Z,100.00
2023-03-29T18:05:30.743Z,100.00
2023-03-29T18:07:57.548Z,100.00
2023-03-29T18:10:24.194Z,100.00
2023-03-29T18:12:50.711Z,100.00
2023-03-29T18:15:17.696Z,100.00
2023-03-29T18:17:44.970Z,100.00
2023-03-29T18:20:12.809Z,100.00
2023-03-29T18:22:44.120Z,100.00
2023-03-29T18:25:11.136Z,100.00
2023-03-29T18:27:39.516Z,100.00
2023-03-29T18:30:08.610Z,100.00
2023-03-29T18:32:35.854Z,100.00
2023-03-29T18:35:03.269Z,100.00
2023-03-29T18:37:29.882Z,100.00
2023-03-29T18:39:57.661Z,100.00
2023-03-29T18:42:24.367Z,100.00
2023-03-29T18:44:51.326Z,100.00
2023-03-29T18:47:18.437Z,100.00
2023-03-29T18:49:46.255Z,100.00
2023-03-29T18:52:12.949Z,100.00
2023-03-29T18:54:39.619Z,100.00
2023-03-29T18:57:06.432Z,100.00
2023-03-29T18:59:35.922Z,100.00
2023-03-29T19:02:03.116Z,100.00
2023-03-29T19:04:29.982Z,100.00
2023-03-29T19:06:56.723Z,100.00
2023-03-29T19:09:23.360Z,100.00
2023-03-29T19:11:50.000Z,100.00
2023-03-29T19:14:17.659Z,100.00
2023-03-29T19:16:44.296Z,100.00
2023-03-29T19:19:11.076Z,100.00
2023-03-29T19:21:38.568Z,100.00
2023-03-29T19:24:07.754Z,100.00
2023-03-29T19:26:34.438Z,100.00
2023-03-29T19:29:01.482Z,100.00
2023-03-29T19:31:28.442Z,100.00
2023-03-29T19:33:55.396Z,100.00
2023-03-29T19:36:22.610Z,100.00
2023-03-29T19:38:49.196Z,100.00
2023-03-29T19:41:15.975Z,100.00
2023-03-29T19:43:42.656Z,100.00
2023-03-29T19:46:12.874Z,100.00
2023-03-29T19:48:39.931Z,100.00
2023-03-29T19:51:06.770Z,100.00
2023-03-29T19:53:34.933Z,100.00
2023-03-29T19:56:04.334Z,100.00
2023-03-29T19:58:31.524Z,100.00
2023-03-29T20:00:58.227Z,100.00
2023-03-29T20:03:28.490Z,100.00
2023-03-29T20:05:58.427Z,100.00
2023-03-29T20:08:25.644Z,100.00
2023-03-29T20:11:10.207Z,100.00
2023-03-29T20:13:44.869Z,100.00
2023-03-29T20:16:14.641Z,100.00
2023-03-29T20:18:41.653Z,100.00
2023-03-29T20:21:09.848Z,100.00
2023-03-29T20:23:36.859Z,100.00
2023-03-29T20:26:03.526Z,100.00
2023-03-29T20:28:30.428Z,100.00
2023-03-29T20:30:57.288Z,100.00
2023-03-29T20:33:23.992Z,100.00
2023-03-29T20:35:50.878Z,100.00
2023-03-29T20:38:17.523Z,100.00
2023-03-29T20:40:44.950Z,100.00
2023-03-29T20:43:13.427Z,100.00
2023-03-29T20:45:52.769Z,100.00
2023-03-29T20:48:23.199Z,100.00
2023-03-29T20:50:50.722Z,100.00
2023-03-29T20:53:19.372Z,100.00
2023-03-29T20:55:46.022Z,100.00
2023-03-29T20:58:12.751Z,100.00
2023-03-29T21:00:40.368Z,100.00
2023-03-29T21:03:08.328Z,100.00
2023-03-29T21:05:35.782Z,100.00
2023-03-29T21:08:04.508Z,100.00
2023-03-29T21:10:31.213Z,100.00
2023-03-29T21:13:02.642Z,100.00
2023-03-29T21:15:30.944Z,100.00
2023-03-29T21:17:58.442Z,100.00
2023-03-29T21:20:25.637Z,100.00
2023-03-29T21:22:52.248Z,100.00
2023-03-29T21:25:19.227Z,100.00
2023-03-29T21:27:46.030Z,100.00
2023-03-29T21:30:13.022Z,100.00
2023-03-29T21:32:40.121Z,100.00
2023-03-29T21:35:07.466Z,100.00
2023-03-29T21:37:34.018Z,100.00
2023-03-29T21:40:00.690Z,100.00
2023-03-29T21:42:27.227Z,100.00
2023-03-29T21:44:53.806Z,100.00
2023-03-29T21:47:20.588Z,100.00
2023-03-29T21:49:47.212Z,100.00
2023-03-29T21:52:13.784Z,100.00
2023-03-29T21:54:40.372Z,100.00
2023-03-29T21:57:06.956Z,100.00
2023-03-29T21:59:33.603Z,100.00
2023-03-29T22:02:00.557Z,100.00
2023-03-29T22:04:36.530Z,100.00
2023-03-29T22:07:04.817Z,100.00
2023-03-29T22:09:34.783Z,100.00
2023-03-29T22:12:01.782Z,100.00
2023-03-29T22:14:31.436Z,100.00
2023-03-29T22:16:58.080Z,100.00
2023-03-29T22:19:24.805Z,100.00
2023-03-29T22:21:51.530Z,100.00
2023-03-29T22:24:18.748Z,100.00
2023-03-29T22:26:45.446Z,100.00
2023-03-29T22:29:12.066Z,100.00
2023-03-29T22:31:39.482Z,100.00
2023-03-29T22:34:06.651Z,100.00
2023-03-29T22:36:33.714Z,100.00
2023-03-29T22:39:00.741Z,100.00
2023-03-29T22:41:28.321Z,100.00
2023-03-29T22:43:57.754Z,100.00
2023-03-29T22:46:26.361Z,100.00
2023-03-29T22:48:53.543Z,100.00
2023-03-29T22:51:20.793Z,100.00
2023-03-29T22:53:47.656Z,100.00
2023-03-29T22:56:15.670Z,100.00
2023-03-29T22:58:43.276Z,100.00
2023-03-29T23:01:10.834Z,100.00
2023-03-29T23:03:37.732Z,100.00
2023-03-29T23:06:04.754Z,100.00
2023-03-29T23:08:33.851Z,100.00
2023-03-29T23:11:01.437Z,100.00
2023-03-29T23:13:31.135Z,100.00
2023-03-29T23:16:00.280Z,100.00
2023-03-29T23:18:29.529Z,100.00
2023-03-29T23:20:58.018Z,100.00
2023-03-29T23:23:26.921Z,100.00
2023-03-29T23:25:55.462Z,100.00
2023-03-29T23:28:25.116Z,100.00
2023-03-29T23:31:06.217Z,100.00
2023-03-29T23:33:35.616Z,100.00
2023-03-29T23:36:04.446Z,100.00
2023-03-29T23:38:35.213Z,100.00
2023-03-29T23:41:04.243Z,100.00
2023-03-29T23:43:33.710Z,100.00
2023-03-29T23:46:02.861Z,100.00
2023-03-29T23:48:30.223Z,100.00
2023-03-29T23:50:59.917Z,100.00
2023-03-29T23:53:28.947Z,100.00
2023-03-29T23:56:05.801Z,100.00
2023-03-29T23:58:33.404Z,100.00
